createdAt,value
2018-05-26T00:01:07.552Z,18.06
2018-05-26T00:03:36.770Z,18.01
2018-05-26T00:06:06.097Z,17.97
2018-05-26T00:08:35.383Z,17.98
2018-05-26T00:11:04.657Z,17.98
2018-05-26T00:13:33.938Z,18.00
2018-05-26T00:16:03.167Z,18.02
2018-05-26T00:18:32.438Z,17.97
2018-05-26T00:21:01.638Z,17.97
2018-05-26T00:23:30.861Z,17.95
2018-05-26T00:26:00.144Z,17.97
2018-05-26T00:28:29.341Z,18.01
2018-05-26T00:30:58.585Z,18.02
2018-05-26T00:33:27.806Z,18.00
2018-05-26T00:35:57.043Z,17.96
2018-05-26T00:38:26.250Z,17.94
2018-05-26T00:40:55.499Z,17.89
2018-05-26T00:43:25.473Z,17.89
2018-05-26T00:45:54.701Z,17.84
2018-05-26T00:48:23.932Z,17.79
2018-05-26T00:50:53.905Z,17.80
2018-05-26T00:53:23.145Z,17.75
2018-05-26T00:55:52.646Z,17.77
2018-05-26T00:58:22.611Z,17.79
2018-05-26T01:00:51.857Z,17.76
2018-05-26T01:03:21.845Z,17.65
2018-05-26T01:05:51.063Z,17.52
2018-05-26T01:08:21.042Z,17.42
2018-05-26T01:10:50.284Z,17.37
2018-05-26T01:13:19.498Z,17.36
2018-05-26T01:15:48.732Z,17.35
2018-05-26T01:18:17.939Z,17.42
2018-05-26T01:20:47.174Z,17.48
2018-05-26T01:23:16.400Z,17.55
2018-05-26T01:25:45.797Z,17.58
2018-05-26T01:28:15.036Z,17.64
2018-05-26T01:30:44.264Z,17.67
2018-05-26T01:33:15.462Z,17.70
2018-05-26T01:35:44.685Z,17.73
2018-05-26T01:38:14.711Z,17.79
2018-05-26T01:40:43.921Z,17.80
2018-05-26T01:43:13.918Z,17.78
2018-05-26T01:45:43.136Z,17.72
2018-05-26T01:48:12.376Z,17.69
2018-05-26T01:50:41.625Z,17.67
2018-05-26T01:53:12.690Z,17.68
2018-05-26T01:55:42.869Z,17.64
2018-05-26T01:58:12.145Z,17.62
2018-05-26T02:00:41.393Z,17.55
2018-05-26T02:03:10.630Z,17.57
2018-05-26T02:05:43.074Z,17.58
2018-05-26T02:08:14.249Z,17.50
2018-05-26T02:10:44.210Z,17.44
2018-05-26T02:13:13.463Z,17.39
2018-05-26T02:15:42.699Z,17.35
2018-05-26T02:18:11.929Z,17.34
2018-05-26T02:20:41.138Z,17.29
2018-05-26T02:23:10.330Z,17.29
2018-05-26T02:25:39.560Z,17.25
2018-05-26T02:28:08.802Z,17.23
2018-05-26T02:30:38.777Z,17.18
2018-05-26T02:33:08.017Z,17.18
2018-05-26T02:35:37.247Z,17.13
2018-05-26T02:38:06.456Z,17.08
2018-05-26T02:40:35.762Z,17.08
2018-05-26T02:43:04.929Z,17.08
2018-05-26T02:45:34.178Z,17.07
2018-05-26T02:48:03.357Z,17.08
2018-05-26T02:50:33.451Z,17.04
2018-05-26T02:53:02.666Z,17.00
2018-05-26T02:55:31.917Z,16.94
2018-05-26T02:58:01.903Z,16.93
2018-05-26T03:00:31.130Z,16.84
2018-05-26T03:03:01.105Z,16.77
2018-05-26T03:05:35.703Z,16.79
2018-05-26T03:08:10.291Z,16.80
2018-05-26T03:10:47.480Z,16.74
2018-05-26T03:13:23.069Z,16.74
2018-05-26T03:16:04.998Z,16.74
2018-05-26T03:18:34.265Z,16.73
2018-05-26T03:21:03.692Z,16.73
2018-05-26T03:23:32.927Z,16.71
2018-05-26T03:26:02.441Z,16.65
2018-05-26T03:28:31.837Z,16.66
2018-05-26T03:31:01.068Z,16.65
2018-05-26T03:33:30.294Z,16.66
2018-05-26T03:35:59.533Z,16.71
2018-05-26T03:38:29.513Z,16.74
2018-05-26T03:40:58.760Z,16.76
2018-05-26T03:43:28.229Z,16.78
2018-05-26T03:45:58.244Z,16.82
2018-05-26T03:48:30.402Z,16.87
2018-05-26T03:51:00.029Z,16.90
2018-05-26T03:53:29.260Z,16.91
2018-05-26T03:56:16.277Z,16.94
2018-05-26T03:59:03.310Z,16.92
2018-05-26T04:01:33.599Z,16.84
2018-05-26T04:04:03.187Z,16.85
2018-05-26T04:06:33.182Z,16.83
2018-05-26T04:09:02.392Z,16.88
2018-05-26T04:11:32.406Z,16.88
2018-05-26T04:14:03.278Z,16.91
2018-05-26T04:16:32.537Z,16.98
2018-05-26T04:19:02.726Z,17.00
2018-05-26T04:21:32.120Z,17.00
2018-05-26T04:24:01.473Z,17.02
2018-05-26T04:26:30.657Z,17.06
2018-05-26T04:29:00.653Z,17.12
2018-05-26T04:31:31.002Z,17.21
2018-05-26T04:34:00.241Z,17.23
2018-05-26T04:36:29.471Z,17.23
2018-05-26T04:39:00.124Z,17.20
2018-05-26T04:41:29.382Z,17.17
2018-05-26T04:43:58.906Z,17.17
2018-05-26T04:46:33.068Z,17.23
2018-05-26T04:51:37.186Z,17.28
2018-05-26T04:54:07.883Z,17.29
2018-05-26T04:56:37.083Z,17.32
2018-05-26T04:59:06.318Z,17.32
2018-05-26T05:01:35.536Z,17.38
2018-05-26T05:04:04.753Z,17.42
2018-05-26T05:06:33.942Z,17.46
2018-05-26T05:09:03.349Z,17.58
2018-05-26T05:11:32.563Z,17.66
2018-05-26T05:14:05.631Z,17.75
2018-05-26T05:16:34.847Z,17.89
2018-05-26T05:19:04.084Z,18.03
2018-05-26T05:21:34.057Z,18.14
2018-05-26T05:24:03.313Z,18.16
2018-05-26T05:26:32.561Z,18.19
2018-05-26T05:29:01.806Z,18.29
2018-05-26T05:31:32.452Z,18.44
2018-05-26T05:34:03.330Z,18.51
2018-05-26T05:36:32.569Z,18.60
2018-05-26T05:39:01.799Z,18.70
2018-05-26T05:41:31.140Z,18.82
2018-05-26T05:44:00.549Z,18.99
2018-05-26T05:46:29.800Z,19.16
2018-05-26T05:48:58.999Z,19.23
2018-05-26T05:51:28.258Z,19.36
2018-05-26T05:53:57.498Z,19.45
2018-05-26T05:56:26.748Z,19.64
2018-05-26T05:58:55.954Z,19.75
2018-05-26T06:01:25.980Z,19.88
2018-05-26T06:03:55.959Z,20.10
2018-05-26T06:06:25.195Z,20.26
2018-05-26T06:08:54.727Z,20.40
2018-05-26T06:11:24.077Z,20.55
2018-05-26T06:13:54.030Z,20.78
2018-05-26T06:16:23.334Z,20.89
2018-05-26T06:18:52.581Z,21.05
2018-05-26T06:21:21.799Z,21.18
2018-05-26T06:23:51.825Z,21.26
2018-05-26T06:26:21.932Z,21.43
2018-05-26T06:28:51.990Z,21.43
2018-05-26T06:31:22.671Z,21.57
2018-05-26T06:33:53.773Z,21.77
2018-05-26T06:36:22.990Z,21.88
2018-05-26T06:38:53.121Z,22.01
2018-05-26T06:41:22.542Z,22.13
2018-05-26T06:43:53.227Z,22.29
2018-05-26T06:46:23.280Z,22.48
2018-05-26T06:48:52.639Z,22.55
2018-05-26T06:51:21.909Z,22.52
2018-05-26T06:53:54.548Z,22.64
2018-05-26T06:56:25.431Z,22.72
2018-05-26T06:58:54.707Z,22.76
2018-05-26T07:01:24.880Z,22.84
2018-05-26T07:03:54.105Z,22.94
2018-05-26T07:09:00.371Z,23.16
2018-05-26T07:11:29.593Z,23.24
2018-05-26T07:13:59.580Z,23.32
2018-05-26T07:16:29.092Z,23.29
2018-05-26T07:18:58.318Z,23.32
2018-05-26T07:21:28.353Z,23.34
2018-05-26T07:23:57.591Z,23.42
2018-05-26T07:26:26.801Z,23.51
2018-05-26T07:28:56.016Z,23.67
2018-05-26T07:31:26.121Z,23.78
2018-05-26T07:33:55.366Z,24.00
2018-05-26T07:36:24.638Z,24.10
2018-05-26T07:38:54.849Z,24.20
2018-05-26T07:41:24.061Z,24.25
2018-05-26T07:43:54.047Z,24.34
2018-05-26T07:46:25.269Z,24.56
2018-05-26T07:48:54.651Z,24.73
2018-05-26T07:51:23.869Z,24.80
2018-05-26T07:53:53.414Z,24.94
2018-05-26T07:56:23.440Z,25.01
2018-05-26T07:58:52.605Z,25.21
2018-05-26T08:01:21.883Z,25.37
2018-05-26T08:03:51.070Z,25.43
2018-05-26T08:06:20.364Z,25.37
2018-05-26T08:08:49.597Z,25.46
2018-05-26T08:11:18.970Z,25.67
2018-05-26T08:13:48.194Z,25.77
2018-05-26T08:16:17.413Z,25.79
2018-05-26T08:18:47.403Z,25.84
2018-05-26T08:21:16.623Z,25.91
2018-05-26T08:23:46.630Z,26.01
2018-05-26T08:26:21.124Z,26.17
2018-05-26T08:28:50.980Z,26.29
2018-05-26T08:31:20.470Z,26.41
2018-05-26T08:33:50.688Z,26.58
2018-05-26T08:36:20.285Z,26.79
2018-05-26T08:38:49.755Z,26.92
2018-05-26T08:41:19.288Z,27.08
2018-05-26T08:43:48.513Z,27.23
2018-05-26T08:46:22.845Z,27.33
2018-05-26T08:48:55.781Z,27.49
2018-05-26T08:51:25.015Z,27.55
2018-05-26T08:53:55.733Z,27.59
2018-05-26T08:56:25.029Z,27.64
2018-05-26T08:58:54.225Z,27.67
2018-05-26T09:01:26.562Z,27.74
2018-05-26T09:03:55.794Z,27.76
2018-05-26T09:06:25.010Z,27.71
2018-05-26T09:08:55.002Z,27.79
2018-05-26T09:11:24.195Z,27.93
2018-05-26T09:13:53.494Z,27.83
2018-05-26T09:16:25.312Z,27.64
2018-05-26T09:18:57.521Z,27.69
2018-05-26T09:21:26.751Z,27.89
2018-05-26T09:23:56.730Z,27.95
2018-05-26T09:26:25.955Z,28.06
2018-05-26T09:28:59.491Z,28.05
2018-05-26T09:31:32.716Z,27.97
2018-05-26T09:34:02.871Z,28.08
2018-05-26T09:36:32.928Z,27.93
2018-05-26T09:39:02.151Z,27.91
2018-05-26T09:41:31.381Z,28.05
2018-05-26T09:44:01.384Z,28.13
2018-05-26T09:46:30.602Z,28.16
2018-05-26T09:49:00.599Z,28.26
2018-05-26T09:51:29.832Z,28.24
2018-05-26T09:53:59.817Z,28.25
2018-05-26T09:56:29.985Z,28.24
2018-05-26T09:58:59.173Z,28.28
2018-05-26T10:01:29.142Z,28.48
2018-05-26T10:03:58.412Z,28.52
2018-05-26T10:06:27.625Z,28.64
2018-05-26T10:08:57.664Z,28.84
2018-05-26T10:11:27.043Z,29.01
2018-05-26T10:13:56.313Z,28.87
2018-05-26T10:16:25.472Z,28.51
2018-05-26T10:18:54.748Z,28.17
2018-05-26T10:21:24.032Z,27.95
2018-05-26T10:23:53.280Z,27.59
2018-05-26T10:26:23.258Z,27.30
2018-05-26T10:28:52.486Z,27.02
2018-05-26T10:31:22.567Z,26.76
2018-05-26T10:33:51.783Z,26.85
2018-05-26T10:36:21.119Z,26.72
2018-05-26T10:38:50.449Z,26.58
2018-05-26T10:41:19.677Z,26.47
2018-05-26T10:43:48.995Z,26.31
2018-05-26T10:46:25.682Z,26.18
2018-05-26T10:48:54.981Z,26.24
2018-05-26T10:51:24.960Z,26.38
2018-05-26T10:53:55.025Z,26.47
2018-05-26T10:56:24.302Z,26.49
2018-05-26T10:58:57.769Z,26.52
2018-05-26T11:01:27.029Z,26.66
2018-05-26T11:03:56.465Z,26.73
2018-05-26T11:06:25.695Z,26.84
2018-05-26T11:08:55.709Z,26.85
2018-05-26T11:11:25.718Z,26.65
2018-05-26T11:13:55.698Z,26.57
2018-05-26T11:16:27.234Z,26.57
2018-05-26T11:18:57.110Z,26.54
2018-05-26T11:21:26.284Z,26.55
2018-05-26T11:23:55.509Z,26.55
2018-05-26T11:26:24.734Z,26.44
2018-05-26T11:28:53.975Z,26.44
2018-05-26T11:31:23.490Z,26.45
2018-05-26T11:33:52.701Z,26.51
2018-05-26T11:36:22.905Z,26.58
2018-05-26T11:38:52.180Z,26.62
2018-05-26T11:41:21.396Z,26.50
2018-05-26T11:43:50.742Z,26.49
2018-05-26T11:46:19.943Z,26.44
2018-05-26T11:48:49.176Z,26.35
2018-05-26T11:51:19.291Z,26.41
2018-05-26T11:53:49.451Z,26.53
2018-05-26T11:56:19.521Z,26.70
2018-05-26T11:58:48.751Z,26.73
2018-05-26T12:01:18.120Z,26.78
2018-05-26T12:03:47.335Z,26.79
2018-05-26T12:06:17.358Z,26.82
2018-05-26T12:08:46.593Z,26.98
2018-05-26T12:11:15.914Z,27.16
2018-05-26T12:13:45.118Z,27.17
2018-05-26T12:16:14.402Z,27.11
2018-05-26T12:18:43.652Z,27.19
2018-05-26T12:21:13.767Z,27.24
2018-05-26T12:23:42.999Z,27.30
2018-05-26T12:26:12.993Z,27.41
2018-05-26T12:28:42.223Z,27.35
2018-05-26T12:31:11.487Z,27.29
2018-05-26T12:33:42.643Z,27.25
2018-05-26T12:36:11.855Z,27.31
2018-05-26T12:38:41.829Z,27.31
2018-05-26T12:41:11.035Z,27.25
2018-05-26T12:43:40.249Z,27.22
2018-05-26T12:46:09.609Z,27.12
2018-05-26T12:48:46.361Z,27.14
2018-05-26T12:51:23.487Z,27.26
2018-05-26T12:53:52.889Z,27.37
2018-05-26T12:56:22.095Z,27.48
2018-05-26T12:58:51.424Z,27.58
2018-05-26T13:01:20.668Z,27.57
2018-05-26T13:03:52.964Z,27.58
2018-05-26T13:06:22.190Z,27.59
2018-05-26T13:08:51.409Z,27.66
2018-05-26T13:11:20.770Z,27.77
2018-05-26T13:13:50.733Z,27.82
2018-05-26T13:16:19.970Z,27.79
2018-05-26T13:18:49.266Z,27.86
2018-05-26T13:21:19.429Z,27.88
2018-05-26T13:23:49.674Z,27.94
2018-05-26T13:26:18.954Z,27.85
2018-05-26T13:28:48.162Z,27.70
2018-05-26T13:31:18.998Z,27.62
2018-05-26T13:33:48.226Z,27.60
2018-05-26T13:36:19.449Z,27.58
2018-05-26T13:38:48.658Z,27.49
2018-05-26T13:41:17.878Z,27.47
2018-05-26T13:43:47.122Z,27.39
2018-05-26T13:46:16.353Z,27.27
2018-05-26T13:48:45.614Z,27.17
2018-05-26T13:51:14.890Z,27.20
2018-05-26T13:53:44.215Z,27.26
2018-05-26T13:56:13.407Z,27.25
2018-05-26T13:58:46.345Z,27.24
2018-05-26T14:01:15.578Z,27.24
2018-05-26T14:03:45.777Z,27.25
2018-05-26T14:06:16.598Z,27.26
2018-05-26T14:08:48.766Z,27.31
2018-05-26T14:11:18.026Z,27.33
2018-05-26T14:13:47.268Z,27.29
2018-05-26T14:16:16.473Z,27.29
2018-05-26T14:18:48.212Z,27.34
2018-05-26T14:21:17.428Z,27.42
2018-05-26T14:23:48.565Z,27.43
2018-05-26T14:26:17.764Z,27.38
2018-05-26T14:28:48.522Z,27.38
2018-05-26T14:31:17.809Z,27.42
2018-05-26T14:33:47.205Z,27.38
2018-05-26T14:36:16.421Z,27.36
2018-05-26T14:38:46.380Z,27.35
2018-05-26T14:41:15.623Z,27.35
2018-05-26T14:43:44.887Z,27.40
2018-05-26T14:46:14.105Z,27.36
2018-05-26T14:48:43.487Z,27.35
2018-05-26T14:51:12.752Z,27.32
2018-05-26T14:53:43.221Z,27.26
2018-05-26T14:56:12.458Z,27.23
2018-05-26T14:58:41.718Z,27.22
2018-05-26T15:01:11.378Z,27.31
2018-05-26T15:03:41.411Z,27.39
2018-05-26T15:06:10.643Z,27.38
2018-05-26T15:08:39.868Z,27.39
2018-05-26T15:11:09.878Z,27.40
2018-05-26T15:13:39.840Z,27.35
2018-05-26T15:16:09.079Z,27.30
2018-05-26T15:18:38.362Z,27.36
2018-05-26T15:21:08.237Z,27.35
2018-05-26T15:23:37.451Z,27.39
2018-05-26T15:26:07.209Z,27.40
2018-05-26T15:28:36.561Z,27.39
2018-05-26T15:31:06.058Z,27.38
2018-05-26T15:33:35.303Z,27.40
2018-05-26T15:36:04.644Z,27.41
2018-05-26T15:38:33.850Z,27.36
2018-05-26T15:41:03.106Z,27.30
2018-05-26T15:43:32.277Z,27.31
2018-05-26T15:46:01.539Z,27.36
2018-05-26T15:48:31.529Z,27.40
2018-05-26T15:51:01.554Z,27.37
2018-05-26T15:53:31.531Z,27.32
2018-05-26T15:56:00.746Z,27.30
2018-05-26T15:58:30.143Z,27.26
2018-05-26T16:00:59.506Z,27.21
2018-05-26T16:03:28.738Z,27.20
2018-05-26T16:05:58.068Z,27.22
2018-05-26T16:08:27.328Z,27.22
2018-05-26T16:10:56.541Z,27.18
2018-05-26T16:13:25.755Z,27.18
2018-05-26T16:15:55.828Z,27.15
2018-05-26T16:18:25.047Z,27.13
2018-05-26T16:20:54.216Z,27.12
2018-05-26T16:23:23.484Z,27.10
2018-05-26T16:25:52.677Z,27.15
2018-05-26T16:28:21.915Z,27.18
2018-05-26T16:30:51.116Z,27.20
2018-05-26T16:33:20.327Z,27.18
2018-05-26T16:35:49.538Z,27.22
2018-05-26T16:38:18.755Z,27.22
2018-05-26T16:40:47.977Z,27.15
2018-05-26T16:43:17.187Z,27.09
2018-05-26T16:45:46.379Z,27.06
2018-05-26T16:48:15.713Z,26.99
2018-05-26T16:50:44.938Z,26.93
2018-05-26T16:53:14.942Z,26.93
2018-05-26T16:55:44.172Z,26.91
2018-05-26T16:58:14.464Z,26.88
2018-05-26T17:00:44.458Z,26.85
2018-05-26T17:03:13.751Z,26.85
2018-05-26T17:05:43.029Z,26.89
2018-05-26T17:08:12.278Z,26.88
2018-05-26T17:10:41.672Z,26.86
2018-05-26T17:13:11.086Z,26.81
2018-05-26T17:15:41.093Z,26.76
2018-05-26T17:18:10.379Z,26.72
2018-05-26T17:20:39.606Z,26.73
2018-05-26T17:23:10.432Z,26.70
2018-05-26T17:25:41.720Z,26.67
2018-05-26T17:28:10.921Z,26.63
2018-05-26T17:30:40.149Z,26.61
2018-05-26T17:33:09.381Z,26.60
2018-05-26T17:35:39.688Z,26.56
2018-05-26T17:38:08.953Z,26.55
2018-05-26T17:40:38.185Z,26.57
2018-05-26T17:43:07.420Z,26.59
2018-05-26T17:45:36.685Z,26.59
2018-05-26T17:48:05.875Z,26.56
2018-05-26T17:50:35.963Z,26.54
2018-05-26T17:53:05.183Z,26.60
2018-05-26T17:55:34.546Z,26.62
2018-05-26T17:58:03.753Z,26.63
2018-05-26T18:00:32.978Z,26.60
2018-05-26T18:03:02.222Z,26.57
2018-05-26T18:05:31.476Z,26.51
2018-05-26T18:08:00.789Z,26.52
2018-05-26T18:10:30.026Z,26.50
2018-05-26T18:12:59.259Z,26.45
2018-05-26T18:15:28.489Z,26.39
2018-05-26T18:17:58.514Z,26.35
2018-05-26T18:20:28.701Z,26.39
2018-05-26T18:22:57.890Z,26.47
2018-05-26T18:25:27.982Z,26.47
2018-05-26T18:27:57.206Z,26.45
2018-05-26T18:30:26.415Z,26.36
2018-05-26T18:32:57.164Z,26.31
2018-05-26T18:35:26.414Z,26.26
2018-05-26T18:37:55.648Z,26.22
2018-05-26T18:40:24.849Z,26.16
2018-05-26T18:42:54.135Z,26.09
2018-05-26T18:45:23.605Z,26.02
2018-05-26T18:47:54.698Z,25.94
2018-05-26T18:50:24.665Z,25.86
2018-05-26T18:52:53.956Z,25.80
2018-05-26T18:55:23.150Z,25.77
2018-05-26T18:57:53.642Z,25.76
2018-05-26T19:00:25.923Z,25.77
2018-05-26T19:02:55.141Z,25.82
2018-05-26T19:05:24.345Z,25.79
2018-05-26T19:07:53.593Z,25.75
2018-05-26T19:10:22.909Z,25.71
2018-05-26T19:12:52.140Z,25.71
2018-05-26T19:15:21.333Z,25.69
2018-05-26T19:17:50.534Z,25.67
2018-05-26T19:20:19.997Z,25.62
2018-05-26T19:22:49.974Z,25.54
2018-05-26T19:25:19.196Z,25.45
2018-05-26T19:27:48.391Z,25.38
2018-05-26T19:30:18.449Z,25.35
2018-05-26T19:32:47.659Z,25.23
2018-05-26T19:35:16.892Z,25.14
2018-05-26T19:37:48.023Z,25.07
2018-05-26T19:40:17.356Z,25.01
2018-05-26T19:42:46.570Z,24.95
2018-05-26T19:45:16.769Z,24.90
2018-05-26T19:47:46.004Z,24.86
2018-05-26T19:50:16.017Z,24.78
2018-05-26T19:52:45.257Z,24.71
2018-05-26T19:55:14.473Z,24.64
2018-05-26T19:57:43.714Z,24.58
2018-05-26T20:00:13.106Z,24.51
2018-05-26T20:02:42.342Z,24.44
2018-05-26T20:05:11.567Z,24.38
2018-05-26T20:07:40.774Z,24.32
2018-05-26T20:10:10.046Z,24.20
2018-05-26T20:12:39.236Z,24.11
2018-05-26T20:17:44.114Z,23.88
2018-05-26T20:20:14.767Z,23.78
2018-05-26T20:22:44.023Z,23.74
2018-05-26T20:25:13.270Z,23.64
2018-05-26T20:27:44.206Z,23.56
2018-05-26T20:30:14.196Z,23.50
2018-05-26T20:32:48.517Z,23.49
2018-05-26T20:35:23.834Z,23.45
2018-05-26T20:37:53.157Z,23.46
2018-05-26T20:40:22.366Z,23.44
2018-05-26T20:42:52.354Z,23.43
2018-05-26T20:45:21.581Z,23.43
2018-05-26T20:47:51.557Z,23.42
2018-05-26T20:50:20.805Z,23.38
2018-05-26T20:52:52.231Z,23.33
2018-05-26T20:55:24.438Z,23.25
2018-05-26T20:57:54.414Z,23.16
2018-05-26T21:00:23.661Z,23.10
2018-05-26T21:02:52.895Z,23.03
2018-05-26T21:05:22.096Z,22.95
2018-05-26T21:07:51.288Z,22.87
2018-05-26T21:10:21.316Z,22.81
2018-05-26T21:12:50.583Z,22.77
2018-05-26T21:15:19.810Z,22.77
2018-05-26T21:17:49.002Z,22.77
2018-05-26T21:20:18.286Z,22.79
2018-05-26T21:22:47.493Z,22.79
2018-05-26T21:25:16.734Z,22.81
2018-05-26T21:27:47.895Z,22.82
2018-05-26T21:30:17.038Z,22.82
2018-05-26T21:32:46.275Z,22.78
2018-05-26T21:35:15.493Z,22.78
2018-05-26T21:37:44.751Z,22.75
2018-05-26T21:40:14.074Z,22.72
2018-05-26T21:42:43.410Z,22.64
2018-05-26T21:45:12.754Z,22.57
2018-05-26T21:47:42.097Z,22.53
2018-05-26T21:50:11.353Z,22.45
2018-05-26T21:52:41.351Z,22.38
2018-05-26T21:55:10.576Z,22.36
2018-05-26T21:57:40.597Z,22.34
2018-05-26T22:00:10.591Z,22.30
2018-05-26T22:02:39.806Z,22.27
2018-05-26T22:05:09.053Z,22.25
2018-05-26T22:07:38.270Z,22.24
2018-05-26T22:10:07.718Z,22.22
2018-05-26T22:12:36.913Z,22.22
2018-05-26T22:15:06.133Z,22.20
2018-05-26T22:17:35.388Z,22.22
2018-05-26T22:20:06.357Z,22.18
2018-05-26T22:22:35.698Z,22.15
2018-05-26T22:25:04.941Z,22.13
2018-05-26T22:27:34.921Z,22.14
2018-05-26T22:30:05.641Z,22.14
2018-05-26T22:32:34.858Z,22.10
2018-05-26T22:35:05.494Z,22.10
2018-05-26T22:37:38.457Z,22.10
2018-05-26T22:40:07.905Z,22.06
2018-05-26T22:42:37.200Z,22.06
2018-05-26T22:45:09.007Z,22.08
2018-05-26T22:47:38.338Z,22.06
2018-05-26T22:50:07.556Z,22.02
2018-05-26T22:52:37.749Z,21.99
2018-05-26T22:55:10.276Z,21.96
2018-05-26T22:57:39.578Z,21.94
2018-05-26T23:00:10.873Z,21.92
2018-05-26T23:02:40.108Z,21.87
2018-05-26T23:05:09.313Z,21.85
2018-05-26T23:07:38.539Z,21.85
2018-05-26T23:10:07.837Z,21.84
2018-05-26T23:12:38.606Z,21.78
2018-05-26T23:15:08.999Z,21.73
2018-05-26T23:17:38.253Z,21.65
2018-05-26T23:20:08.205Z,21.65
2018-05-26T23:22:37.441Z,21.61
2018-05-26T23:25:07.961Z,21.55
2018-05-26T23:27:37.185Z,21.49
2018-05-26T23:30:06.487Z,21.30
2018-05-26T23:32:35.665Z,21.14
2018-05-26T23:35:04.877Z,20.99
2018-05-26T23:37:34.250Z,20.88
2018-05-26T23:40:05.046Z,20.79
2018-05-26T23:42:37.286Z,20.66
2018-05-26T23:45:07.285Z,20.52
2018-05-26T23:47:36.509Z,20.31
2018-05-26T23:50:07.589Z,20.12
2018-05-26T23:52:41.262Z,19.99
2018-05-26T23:55:10.537Z,19.84
2018-05-26T23:57:42.357Z,19.65
